< < Back
Terminal Aerodrome Forecast


Current Version              Previous Versions:   1  2  3  4  5  6  7  8  9  

Terminal Aerodrome Forecast

002
FTUS42 KTAE 291130
TAFDHN
TAF
KDHN 291130Z 2912/3012 36004KT P6SM OVC060
     FM291400 30006KT P6SM SCT070
     FM300200 17004KT P6SM SKC=

Latest METAR

468
SAUS70 KWBC 300400 RRC
MTRDHN
METAR KDHN 300353Z AUTO 20006KT 10SM CLR 11/06 A3033 RMK AO2 SLP268
T01110061 $


USA.gov is the U.S. government's official web portal to all federal, state and local government web resources and services.